createdAt,value
2023-03-04T00:02:28.685Z,0.96
2023-03-04T00:06:30.236Z,1.09
2023-03-04T00:10:31.681Z,0.91
2023-03-04T00:14:33.089Z,0.98
2023-03-04T00:18:34.560Z,0.82
2023-03-04T00:22:36.006Z,0.89
2023-03-04T00:26:37.423Z,0.93
2023-03-04T00:30:38.941Z,0.93
2023-03-04T00:34:40.599Z,1.02
2023-03-04T00:38:42.145Z,1.17
2023-03-04T00:42:43.812Z,1.03
2023-03-04T00:46:45.486Z,1.12
2023-03-04T00:50:46.949Z,1.12
2023-03-04T00:54:48.414Z,1.20
2023-03-04T00:58:49.907Z,1.24
2023-03-04T01:02:51.423Z,1.24
2023-03-04T01:06:52.903Z,1.34
2023-03-04T01:10:54.443Z,1.36
2023-03-04T01:14:55.888Z,1.44
2023-03-04T01:18:57.534Z,1.30
2023-03-04T01:22:58.986Z,1.39
2023-03-04T01:27:00.417Z,1.39
2023-03-04T01:31:03.172Z,1.45
2023-03-04T01:35:05.130Z,1.29
2023-03-04T01:39:06.571Z,1.27
2023-03-04T01:43:15.990Z,1.33
2023-03-04T01:47:18.830Z,1.51
2023-03-04T01:51:21.634Z,1.46
2023-03-04T01:55:24.320Z,1.56
2023-03-04T01:59:30.687Z,1.65
2023-03-04T02:03:32.160Z,1.65
2023-03-04T02:07:33.805Z,1.70
2023-03-04T02:11:41.274Z,1.94
2023-03-04T02:15:45.374Z,1.87
2023-03-04T02:19:52.141Z,1.84
2023-03-04T02:24:15.561Z,1.90
2023-03-04T02:28:17.132Z,1.82
2023-03-04T02:32:18.687Z,1.90
2023-03-04T02:36:20.359Z,2.03
2023-03-04T02:40:29.686Z,2.09
2023-03-04T02:44:36.945Z,2.07
2023-03-04T02:48:38.397Z,2.13
2023-03-04T02:52:39.794Z,2.14
2023-03-04T02:56:46.341Z,2.13
2023-03-04T03:00:48.193Z,2.10
2023-03-04T03:04:49.693Z,2.11
2023-03-04T03:08:51.125Z,2.23
2023-03-04T03:12:52.900Z,2.05
2023-03-04T03:16:54.338Z,2.06
2023-03-04T03:20:56.067Z,2.10
2023-03-04T03:24:57.544Z,2.35
2023-03-04T03:28:58.989Z,2.30
2023-03-04T03:33:00.511Z,2.33
2023-03-04T03:37:01.929Z,2.28
2023-03-04T03:41:03.424Z,2.34
2023-03-04T03:45:05.268Z,2.30
2023-03-04T03:49:06.792Z,2.20
2023-03-04T03:53:08.252Z,2.29
2023-03-04T03:57:09.718Z,2.18
2023-03-04T04:01:11.203Z,2.18
2023-03-04T04:05:13.235Z,2.23
2023-03-04T04:09:14.723Z,2.21
2023-03-04T04:13:16.216Z,2.26
2023-03-04T04:17:17.617Z,2.30
2023-03-04T04:21:19.059Z,2.25
2023-03-04T04:25:20.533Z,2.32
2023-03-04T04:29:23.138Z,2.33
2023-03-04T04:33:25.452Z,2.51
2023-03-04T04:37:26.867Z,2.41
2023-03-04T04:41:39.461Z,2.40
2023-03-04T04:45:41.869Z,2.55
2023-03-04T04:49:43.401Z,2.49
2023-03-04T04:53:44.872Z,2.55
2023-03-04T04:57:46.264Z,2.59
2023-03-04T05:01:47.863Z,2.81
2023-03-04T05:05:49.392Z,2.70
2023-03-04T05:09:53.815Z,2.80
2023-03-04T05:13:55.494Z,2.87
2023-03-04T05:18:03.827Z,2.93
2023-03-04T05:22:05.312Z,2.97
2023-03-04T05:26:11.388Z,3.07
2023-03-04T05:30:13.171Z,3.04
2023-03-04T05:34:14.607Z,2.99
2023-03-04T05:38:18.805Z,2.99
2023-03-04T05:42:20.305Z,3.05
2023-03-04T05:46:25.723Z,3.00
2023-03-04T05:50:27.399Z,3.09
2023-03-04T05:54:28.850Z,3.10
2023-03-04T05:58:30.319Z,3.13
2023-03-04T06:02:31.864Z,3.08
2023-03-04T06:06:33.352Z,3.14
2023-03-04T06:10:34.838Z,3.16
2023-03-04T06:14:36.264Z,3.23
2023-03-04T06:18:38.358Z,3.17
2023-03-04T06:22:40.116Z,3.05
2023-03-04T06:26:41.554Z,3.03
2023-03-04T06:30:43.028Z,3.04
2023-03-04T06:34:44.511Z,3.12
2023-03-04T06:38:46.069Z,3.11
2023-03-04T06:42:47.623Z,3.08
2023-03-04T06:46:49.356Z,3.17
2023-03-04T06:50:50.908Z,3.14
2023-03-04T06:54:52.413Z,3.09
2023-03-04T06:58:53.904Z,3.16
2023-03-04T07:02:55.413Z,3.01
2023-03-04T07:06:56.985Z,3.21
2023-03-04T07:10:58.478Z,3.20
2023-03-04T07:14:59.948Z,3.08
2023-03-04T07:19:01.520Z,3.28
2023-03-04T07:23:03.211Z,3.29
2023-03-04T07:27:04.679Z,3.23
2023-03-04T07:31:24.587Z,3.28
2023-03-04T07:35:26.125Z,3.40
2023-03-04T07:39:27.570Z,3.31
2023-03-04T07:43:29.432Z,3.26
2023-03-04T07:47:30.968Z,3.47
2023-03-04T07:51:32.485Z,3.51
2023-03-04T07:55:34.210Z,3.24
2023-03-04T07:59:35.851Z,3.50
2023-03-04T08:03:37.398Z,3.54
2023-03-04T08:07:38.939Z,3.42
2023-03-04T08:11:41.620Z,3.21
2023-03-04T08:15:43.315Z,3.29
2023-03-04T08:19:45.462Z,3.51
2023-03-04T08:23:47.933Z,3.51
2023-03-04T08:27:49.445Z,3.81
2023-03-04T08:31:52.655Z,3.71
2023-03-04T08:35:54.273Z,3.68
2023-03-04T08:39:55.964Z,3.85
2023-03-04T08:43:59.157Z,4.07
2023-03-04T08:48:00.681Z,3.67
2023-03-04T08:52:02.221Z,3.73
2023-03-04T08:56:04.272Z,4.32
2023-03-04T09:00:06.519Z,4.02
2023-03-04T09:04:08.038Z,4.26
2023-03-04T09:08:09.511Z,4.06
2023-03-04T09:12:10.974Z,4.01
2023-03-04T09:16:15.048Z,4.14
2023-03-04T09:20:16.657Z,3.98
2023-03-04T09:24:18.309Z,4.19
2023-03-04T09:28:20.176Z,4.19
2023-03-04T09:32:21.792Z,4.51
2023-03-04T09:36:24.281Z,4.30
2023-03-04T09:40:41.989Z,4.47
2023-03-04T09:44:46.311Z,4.66
2023-03-04T09:48:52.767Z,4.72
2023-03-04T09:53:21.030Z,4.88
2023-03-04T09:57:22.449Z,4.79
2023-03-04T10:01:36.513Z,4.77
2023-03-04T10:05:50.640Z,5.06
2023-03-04T10:09:55.004Z,5.05
2023-03-04T10:14:04.836Z,5.50
2023-03-04T10:18:20.097Z,5.39
2023-03-04T10:22:33.187Z,5.28
2023-03-04T10:26:34.714Z,5.32
2023-03-04T10:31:10.093Z,5.24
2023-03-04T10:35:12.441Z,5.38
2023-03-04T10:39:26.158Z,5.38
2023-03-04T10:43:28.000Z,5.34
2023-03-04T10:47:32.684Z,5.48
2023-03-04T10:51:42.930Z,5.54
2023-03-04T10:55:45.268Z,5.81
2023-03-04T11:00:19.004Z,5.76
2023-03-04T11:04:25.504Z,5.68
2023-03-04T11:08:27.045Z,5.77
2023-03-04T11:12:33.941Z,5.97
2023-03-04T11:16:35.517Z,6.08
2023-03-04T11:20:48.464Z,6.07
2023-03-04T11:25:02.427Z,6.19
2023-03-04T11:29:13.961Z,6.58
2023-03-04T11:33:25.246Z,5.54
2023-03-04T11:37:41.026Z,5.37
2023-03-04T11:41:50.419Z,5.57
2023-03-04T11:45:54.894Z,5.75
2023-03-04T11:50:16.320Z,5.45
2023-03-04T11:54:23.948Z,5.57
2023-03-04T11:58:43.375Z,5.57
2023-03-04T12:02:47.908Z,5.70
2023-03-04T12:07:32.462Z,5.32
2023-03-04T12:12:12.490Z,5.66
2023-03-04T12:16:28.203Z,5.59
2023-03-04T12:20:32.562Z,5.58
2023-03-04T12:25:19.684Z,5.23
2023-03-04T12:29:58.579Z,5.05
2023-03-04T12:34:24.883Z,5.22
2023-03-04T12:38:34.855Z,5.35
2023-03-04T12:42:55.130Z,5.37
2023-03-04T12:47:34.328Z,5.33
2023-03-04T12:51:44.049Z,5.49
2023-03-04T12:55:47.133Z,5.08
2023-03-04T12:59:57.508Z,5.35
2023-03-04T13:04:12.663Z,5.49
2023-03-04T13:08:29.002Z,5.69
2023-03-04T13:12:54.606Z,5.92
2023-03-04T13:17:06.628Z,5.68
2023-03-04T13:21:14.200Z,5.73
2023-03-04T13:25:45.096Z,5.44
2023-03-04T13:29:46.509Z,5.10
2023-03-04T13:33:53.151Z,5.21
2023-03-04T13:37:59.613Z,5.26
2023-03-04T13:42:02.259Z,6.12
2023-03-04T13:46:19.197Z,5.66
2023-03-04T13:50:34.809Z,5.64
2023-03-04T13:54:37.977Z,5.73
2023-03-04T13:58:39.921Z,5.58
2023-03-04T14:02:41.342Z,5.45
2023-03-04T14:06:45.286Z,5.31
2023-03-04T14:10:56.027Z,5.41
2023-03-04T14:15:19.903Z,5.35
2023-03-04T14:19:27.157Z,5.15
2023-03-04T14:23:32.729Z,5.15
2023-03-04T14:27:36.420Z,5.23
2023-03-04T14:31:38.457Z,5.18
2023-03-04T14:35:46.176Z,5.22
2023-03-04T14:39:50.977Z,5.35
2023-03-04T14:44:03.404Z,5.17
2023-03-04T14:48:06.709Z,5.29
2023-03-04T14:52:40.156Z,5.35
2023-03-04T14:56:44.771Z,4.92
2023-03-04T15:00:47.082Z,5.13
2023-03-04T15:04:50.980Z,5.01
2023-03-04T15:09:08.981Z,5.05
2023-03-04T15:13:10.449Z,4.86
2023-03-04T15:17:37.395Z,4.98
2023-03-04T15:21:43.067Z,5.05
2023-03-04T15:25:44.525Z,4.73
2023-03-04T15:29:45.974Z,4.80
2023-03-04T15:33:47.930Z,4.67
2023-03-04T15:37:52.198Z,4.64
2023-03-04T15:41:55.525Z,4.73
2023-03-04T15:45:57.040Z,4.67
2023-03-04T15:49:58.596Z,4.49
2023-03-04T15:54:00.882Z,4.35
2023-03-04T15:58:03.787Z,4.55
2023-03-04T16:02:15.150Z,4.56
2023-03-04T16:06:20.728Z,4.55
2023-03-04T16:10:26.549Z,4.33
2023-03-04T16:14:27.972Z,4.12
2023-03-04T16:18:29.458Z,4.19
2023-03-04T16:22:31.605Z,4.39
2023-03-04T16:26:35.594Z,4.44
2023-03-04T16:30:37.253Z,4.17
2023-03-04T16:34:38.724Z,4.33
2023-03-04T16:38:40.261Z,4.44
2023-03-04T16:42:42.464Z,4.09
2023-03-04T16:46:44.039Z,4.21
2023-03-04T16:50:46.241Z,4.21
2023-03-04T16:54:47.942Z,4.12
2023-03-04T16:58:49.571Z,4.06
2023-03-04T17:03:01.230Z,4.01
2023-03-04T17:07:02.761Z,4.20
2023-03-04T17:11:04.544Z,3.93
2023-03-04T17:15:08.224Z,4.09
2023-03-04T17:19:09.720Z,4.10
2023-03-04T17:23:11.342Z,3.82
2023-03-04T17:27:12.855Z,3.91
2023-03-04T17:31:17.042Z,4.07
2023-03-04T17:35:18.541Z,4.10
2023-03-04T17:39:20.096Z,4.13
2023-03-04T17:43:21.765Z,4.12
2023-03-04T17:47:23.884Z,3.92
2023-03-04T17:51:53.078Z,3.82
2023-03-04T17:55:57.111Z,4.02
2023-03-04T17:59:58.699Z,3.84
2023-03-04T18:04:00.468Z,3.80
2023-03-04T18:08:01.941Z,3.93
2023-03-04T18:12:03.673Z,3.60
2023-03-04T18:16:05.693Z,3.92
2023-03-04T18:20:07.927Z,3.74
2023-03-04T18:24:10.302Z,3.81
2023-03-04T18:28:11.772Z,3.68
2023-03-04T18:32:13.385Z,3.65
2023-03-04T18:36:15.474Z,3.94
2023-03-04T18:40:17.582Z,3.99
2023-03-04T18:44:19.074Z,3.75
2023-03-04T18:48:20.597Z,3.86
2023-03-04T18:52:22.183Z,3.86
2023-03-04T18:56:37.478Z,3.69
2023-03-04T19:00:38.956Z,3.59
2023-03-04T19:04:40.856Z,3.54
2023-03-04T19:08:42.577Z,3.75
2023-03-04T19:12:44.911Z,3.80
2023-03-04T19:16:46.546Z,3.97
2023-03-04T19:20:48.009Z,3.70
2023-03-04T19:24:49.544Z,3.77
2023-03-04T19:28:51.030Z,3.64
2023-03-04T19:32:52.498Z,3.63
2023-03-04T19:36:54.044Z,3.70
2023-03-04T19:40:55.550Z,3.54
2023-03-04T19:44:57.071Z,3.58
2023-03-04T19:48:59.035Z,3.66
2023-03-04T19:53:00.650Z,3.61
2023-03-04T19:57:02.180Z,3.70
2023-03-04T20:01:04.294Z,3.65
2023-03-04T20:05:06.615Z,3.52
2023-03-04T20:09:08.326Z,3.34
2023-03-04T20:13:10.212Z,3.43
2023-03-04T20:17:11.763Z,3.42
2023-03-04T20:21:13.394Z,3.34
2023-03-04T20:25:14.996Z,3.59
2023-03-04T20:29:16.761Z,3.13
2023-03-04T20:33:18.973Z,3.39
2023-03-04T20:37:20.854Z,3.26
2023-03-04T20:41:24.369Z,3.21
2023-03-04T20:45:25.920Z,3.38
2023-03-04T20:49:29.063Z,3.38
2023-03-04T20:53:30.552Z,3.35
2023-03-04T20:57:32.216Z,3.52
2023-03-04T21:01:34.112Z,3.18
2023-03-04T21:05:35.599Z,3.17
2023-03-04T21:09:37.181Z,3.12
2023-03-04T21:13:41.223Z,2.98
2023-03-04T21:17:42.712Z,3.00
2023-03-04T21:21:45.272Z,3.31
2023-03-04T21:25:48.502Z,3.35
2023-03-04T21:29:50.235Z,3.30
2023-03-04T21:33:54.088Z,3.21
2023-03-04T21:37:55.744Z,3.11
2023-03-04T21:41:58.668Z,3.00
2023-03-04T21:46:00.274Z,3.16
2023-03-04T21:50:01.800Z,3.09
2023-03-04T21:54:03.448Z,3.02
2023-03-04T21:58:04.900Z,2.86
2023-03-04T22:02:15.749Z,3.03
2023-03-04T22:06:21.923Z,3.06
2023-03-04T22:10:23.400Z,2.95
2023-03-04T22:14:25.436Z,3.04
2023-03-04T22:18:27.728Z,3.03
2023-03-04T22:22:30.287Z,3.00
2023-03-04T22:26:32.817Z,2.88
2023-03-04T22:30:35.767Z,2.88
2023-03-04T22:34:37.347Z,2.85
2023-03-04T22:38:39.822Z,2.82
2023-03-04T22:42:43.035Z,2.48
2023-03-04T22:46:44.699Z,2.62
2023-03-04T22:50:46.206Z,2.61
2023-03-04T22:54:47.612Z,2.74
2023-03-04T22:58:49.270Z,2.33
2023-03-04T23:02:51.768Z,2.58
2023-03-04T23:06:53.370Z,2.36
2023-03-04T23:10:54.996Z,2.30
2023-03-04T23:14:57.775Z,2.26
2023-03-04T23:18:59.847Z,2.55
2023-03-04T23:23:01.322Z,2.20
2023-03-04T23:27:02.857Z,2.46
2023-03-04T23:31:06.113Z,2.19
2023-03-04T23:35:07.868Z,2.41
2023-03-04T23:39:11.859Z,2.35
2023-03-04T23:43:13.386Z,2.17
2023-03-04T23:47:14.814Z,2.14
2023-03-04T23:51:20.670Z,2.32
2023-03-04T23:55:22.194Z,2.18
2023-03-04T23:59:23.623Z,2.05
